createdAt,value
2018-12-11T00:01:48.595Z,3.90
2018-12-11T00:04:16.170Z,3.90
2018-12-11T00:06:43.663Z,3.80
2018-12-11T00:09:11.121Z,3.80
2018-12-11T00:11:38.587Z,3.70
2018-12-11T00:14:06.050Z,3.70
2018-12-11T00:16:33.713Z,3.60
2018-12-11T00:19:01.152Z,3.60
2018-12-11T00:21:28.652Z,3.60
2018-12-11T00:23:56.145Z,3.60
2018-12-11T00:26:23.592Z,3.60
2018-12-11T00:28:51.040Z,3.60
2018-12-11T00:31:18.522Z,3.70
2018-12-11T00:33:46.071Z,3.60
2018-12-11T00:36:13.523Z,3.60
2018-12-11T00:38:41.080Z,3.70
2018-12-11T00:41:08.633Z,3.70
2018-12-11T00:43:36.076Z,3.70
2018-12-11T00:46:03.737Z,3.70
2018-12-11T00:48:31.177Z,3.60
2018-12-11T00:50:58.630Z,3.60
2018-12-11T00:53:26.172Z,3.60
2018-12-11T00:55:53.688Z,3.50
2018-12-11T00:58:21.134Z,3.50
2018-12-11T01:00:48.580Z,3.50
2018-12-11T01:03:16.027Z,3.50
2018-12-11T01:05:43.525Z,3.40
2018-12-11T01:08:10.975Z,3.30
2018-12-11T01:10:38.547Z,3.30
2018-12-11T01:13:06.046Z,3.30
2018-12-11T01:15:33.803Z,3.30
2018-12-11T01:18:01.258Z,3.30
2018-12-11T01:20:28.704Z,3.30
2018-12-11T01:22:56.173Z,3.30
2018-12-11T01:25:23.624Z,3.30
2018-12-11T01:27:51.072Z,3.20
2018-12-11T01:30:18.604Z,3.20
2018-12-11T01:32:46.093Z,3.20
2018-12-11T01:35:13.633Z,3.20
2018-12-11T01:37:41.094Z,3.20
2018-12-11T01:40:08.637Z,3.20
2018-12-11T01:42:36.084Z,3.20
2018-12-11T01:45:04.227Z,3.10
2018-12-11T01:47:31.698Z,3.10
2018-12-11T01:49:59.150Z,3.20
2018-12-11T01:52:26.596Z,3.10
2018-12-11T01:54:54.141Z,3.10
2018-12-11T01:57:21.592Z,3.10
2018-12-11T01:59:49.081Z,3.10
2018-12-11T02:02:16.546Z,3.10
2018-12-11T02:04:43.987Z,3.10
2018-12-11T02:07:11.436Z,3.10
2018-12-11T02:09:38.910Z,3.10
2018-12-11T02:12:06.445Z,3.10
2018-12-11T02:14:34.012Z,3.10
2018-12-11T02:17:01.444Z,3.10
2018-12-11T02:19:28.899Z,3.10
2018-12-11T02:21:56.347Z,3.10
2018-12-11T02:24:23.795Z,3.10
2018-12-11T02:26:51.239Z,3.10
2018-12-11T02:29:18.687Z,3.10
2018-12-11T02:31:46.167Z,3.10
2018-12-11T02:34:13.987Z,3.10
2018-12-11T02:36:41.511Z,3.10
2018-12-11T02:39:09.267Z,3.00
2018-12-11T02:41:36.805Z,3.10
2018-12-11T02:44:04.275Z,3.10
2018-12-11T02:46:31.790Z,3.10
2018-12-11T02:48:59.299Z,3.10
2018-12-11T02:51:26.775Z,3.10
2018-12-11T02:53:54.304Z,3.10
2018-12-11T02:56:21.874Z,3.10
2018-12-11T02:58:49.318Z,3.10
2018-12-11T03:01:16.777Z,3.20
2018-12-11T03:03:44.247Z,3.20
2018-12-11T03:06:11.786Z,3.20
2018-12-11T03:08:39.246Z,3.20
2018-12-11T03:11:06.702Z,3.20
2018-12-11T03:13:34.167Z,3.20
2018-12-11T03:16:01.619Z,3.20
2018-12-11T03:18:29.161Z,3.20
2018-12-11T03:20:56.617Z,3.20
2018-12-11T03:23:24.102Z,3.20
2018-12-11T03:25:51.554Z,3.20
2018-12-11T03:28:19.014Z,3.20
2018-12-11T03:30:46.481Z,3.20
2018-12-11T03:33:13.948Z,3.20
2018-12-11T03:35:41.479Z,3.10
2018-12-11T03:38:08.971Z,3.10
2018-12-11T03:40:36.417Z,3.10
2018-12-11T03:43:03.948Z,3.10
2018-12-11T03:45:31.400Z,3.10
2018-12-11T03:47:58.875Z,3.10
2018-12-11T03:50:26.340Z,3.10
2018-12-11T03:52:53.776Z,3.10
2018-12-11T03:55:21.243Z,3.10
2018-12-11T03:57:48.684Z,3.10
2018-12-11T04:00:16.205Z,3.10
2018-12-11T04:02:43.729Z,3.10
2018-12-11T04:05:11.211Z,3.10
2018-12-11T04:07:38.660Z,3.10
2018-12-11T04:10:07.731Z,3.10
2018-12-11T04:12:35.328Z,3.00
2018-12-11T04:15:03.282Z,3.00
2018-12-11T04:17:30.735Z,3.00
2018-12-11T04:19:58.193Z,3.00
2018-12-11T04:22:25.630Z,3.00
2018-12-11T04:24:53.088Z,2.90
2018-12-11T04:27:20.535Z,2.90
2018-12-11T04:29:48.042Z,2.90
2018-12-11T04:32:15.566Z,3.00
2018-12-11T04:34:43.035Z,3.00
2018-12-11T04:37:10.586Z,3.00
2018-12-11T04:39:38.035Z,3.00
2018-12-11T04:42:05.497Z,2.90
2018-12-11T04:44:32.940Z,3.00
2018-12-11T04:47:00.406Z,3.00
2018-12-11T04:49:27.864Z,3.00
2018-12-11T04:51:55.318Z,3.00
2018-12-11T04:54:22.852Z,3.00
2018-12-11T04:56:50.287Z,2.90
2018-12-11T04:59:17.730Z,3.00
2018-12-11T05:01:45.190Z,2.90
2018-12-11T05:04:12.692Z,3.00
2018-12-11T05:06:40.139Z,3.00
2018-12-11T05:09:07.643Z,3.00
2018-12-11T05:11:35.103Z,2.90
2018-12-11T05:14:03.272Z,2.90
2018-12-11T05:16:30.729Z,3.00
2018-12-11T05:18:58.303Z,3.00
2018-12-11T05:21:25.835Z,3.10
2018-12-11T05:23:53.327Z,3.10
2018-12-11T05:26:20.794Z,3.10
2018-12-11T05:28:48.251Z,3.20
2018-12-11T05:31:15.706Z,3.20
2018-12-11T05:33:43.181Z,3.20
2018-12-11T05:36:10.631Z,3.30
2018-12-11T05:38:38.093Z,3.30
2018-12-11T05:41:05.567Z,3.30
2018-12-11T05:43:33.027Z,3.40
2018-12-11T05:46:00.486Z,3.40
2018-12-11T05:48:27.941Z,3.40
2018-12-11T05:50:55.413Z,3.40
2018-12-11T05:53:22.898Z,3.30
2018-12-11T05:55:50.399Z,3.30
2018-12-11T05:58:17.877Z,3.30
2018-12-11T06:00:45.321Z,3.30
2018-12-11T06:03:12.807Z,3.30
2018-12-11T06:05:40.266Z,3.20
2018-12-11T06:08:07.713Z,3.20
2018-12-11T06:10:35.178Z,3.20
2018-12-11T06:13:02.641Z,3.20
2018-12-11T06:15:30.084Z,3.10
2018-12-11T06:17:57.532Z,3.00
2018-12-11T06:20:24.979Z,3.10
2018-12-11T06:22:52.446Z,3.00
2018-12-11T06:25:19.902Z,3.10
2018-12-11T06:27:47.347Z,3.00
2018-12-11T06:30:14.822Z,3.10
2018-12-11T06:32:42.272Z,3.00
2018-12-11T06:35:09.766Z,3.00
2018-12-11T06:37:37.238Z,3.00
2018-12-11T06:40:05.979Z,3.00
2018-12-11T06:42:33.424Z,2.90
2018-12-11T06:45:00.891Z,2.90
2018-12-11T06:47:28.340Z,2.90
2018-12-11T06:49:55.805Z,3.00
2018-12-11T06:52:23.252Z,3.00
2018-12-11T06:54:50.722Z,3.00
2018-12-11T06:57:18.160Z,3.10
2018-12-11T06:59:45.619Z,3.10
2018-12-11T07:02:13.177Z,3.10
2018-12-11T07:04:40.700Z,3.10
2018-12-11T07:07:08.158Z,3.10
2018-12-11T07:09:35.700Z,3.10
2018-12-11T07:12:03.276Z,3.10
2018-12-11T07:14:30.836Z,3.20
2018-12-11T07:16:58.275Z,3.20
2018-12-11T07:19:25.746Z,3.10
2018-12-11T07:21:53.188Z,3.20
2018-12-11T07:24:20.651Z,3.10
2018-12-11T07:26:48.103Z,3.10
2018-12-11T07:29:15.585Z,3.10
2018-12-11T07:31:43.123Z,3.10
2018-12-11T07:34:10.578Z,3.10
2018-12-11T07:36:38.064Z,3.00
2018-12-11T07:39:06.122Z,2.90
2018-12-11T07:41:33.569Z,2.90
2018-12-11T07:44:02.325Z,2.90
2018-12-11T07:46:29.833Z,2.80
2018-12-11T07:48:57.381Z,2.80
2018-12-11T07:51:24.845Z,2.80
2018-12-11T07:53:52.295Z,2.80
2018-12-11T07:56:19.791Z,2.80
2018-12-11T07:58:47.304Z,2.80
2018-12-11T08:01:14.762Z,2.80
2018-12-11T08:03:42.338Z,2.80
2018-12-11T08:06:09.783Z,2.80
2018-12-11T08:08:37.255Z,2.90
2018-12-11T08:11:04.763Z,2.90
2018-12-11T08:13:32.330Z,3.00
2018-12-11T08:15:59.790Z,3.00
2018-12-11T08:18:27.231Z,3.00
2018-12-11T08:20:54.738Z,3.00
2018-12-11T08:23:22.293Z,3.10
2018-12-11T08:25:49.846Z,3.10
2018-12-11T08:28:17.318Z,3.10
2018-12-11T08:30:44.773Z,3.10
2018-12-11T08:33:12.243Z,3.10
2018-12-11T08:35:39.784Z,3.20
2018-12-11T08:38:07.230Z,3.20
2018-12-11T08:40:34.702Z,3.20
2018-12-11T08:43:02.155Z,3.30
2018-12-11T08:45:29.722Z,3.30
2018-12-11T08:47:57.282Z,3.40
2018-12-11T08:50:24.737Z,3.40
2018-12-11T08:52:52.197Z,3.40
2018-12-11T08:55:19.658Z,3.40
2018-12-11T08:57:47.117Z,3.50
2018-12-11T09:00:14.656Z,3.60
2018-12-11T09:02:42.119Z,3.70
2018-12-11T09:05:09.581Z,3.70
2018-12-11T09:07:37.054Z,3.70
2018-12-11T09:10:06.399Z,3.70
2018-12-11T09:12:33.896Z,3.80
2018-12-11T09:15:01.383Z,3.80
2018-12-11T09:17:28.880Z,3.80
2018-12-11T09:19:56.467Z,3.80
2018-12-11T09:22:24.042Z,3.80
2018-12-11T09:24:51.587Z,3.80
2018-12-11T09:27:19.042Z,3.90
2018-12-11T09:29:46.497Z,3.90
2018-12-11T09:32:14.183Z,4.10
2018-12-11T09:34:41.738Z,4.20
2018-12-11T09:37:09.218Z,4.30
2018-12-11T09:39:36.676Z,4.40
2018-12-11T09:42:07.045Z,4.60
2018-12-11T09:44:33.717Z,4.70
2018-12-11T09:47:01.271Z,4.80
2018-12-11T09:49:29.983Z,4.80
2018-12-11T09:51:57.734Z,4.80
2018-12-11T09:54:25.275Z,4.80
2018-12-11T09:56:52.831Z,4.80
2018-12-11T09:59:23.471Z,4.80
2018-12-11T10:01:49.735Z,4.80
2018-12-11T10:04:17.255Z,4.80
2018-12-11T10:06:44.726Z,4.90
2018-12-11T10:09:12.276Z,4.90
2018-12-11T10:11:39.747Z,5.00
2018-12-11T10:14:07.210Z,5.20
2018-12-11T10:16:34.766Z,5.40
2018-12-11T10:19:02.338Z,5.50
2018-12-11T10:21:29.884Z,5.50
2018-12-11T10:23:57.431Z,5.60
2018-12-11T10:26:24.992Z,5.60
2018-12-11T10:28:52.439Z,5.70
2018-12-11T10:31:19.913Z,5.70
2018-12-11T10:33:47.459Z,5.80
2018-12-11T10:36:14.942Z,5.90
2018-12-11T10:38:42.374Z,6.00
2018-12-11T10:41:09.939Z,5.90
2018-12-11T10:43:37.518Z,5.90
2018-12-11T10:46:05.056Z,6.00
2018-12-11T10:48:32.533Z,6.00
2018-12-11T10:51:00.011Z,6.00
2018-12-11T10:53:27.474Z,6.10
2018-12-11T10:55:55.005Z,6.20
2018-12-11T10:58:22.457Z,6.40
2018-12-11T11:00:55.527Z,6.50
2018-12-11T11:03:22.979Z,6.50
2018-12-11T11:05:50.460Z,6.70
2018-12-11T11:08:18.021Z,6.70
2018-12-11T11:10:45.458Z,6.80
2018-12-11T11:13:12.913Z,6.90
2018-12-11T11:15:40.374Z,6.80
2018-12-11T11:18:07.835Z,6.80
2018-12-11T11:20:35.284Z,6.80
2018-12-11T11:23:02.747Z,6.70
2018-12-11T11:25:30.204Z,7.00
2018-12-11T11:27:57.647Z,7.70
2018-12-11T11:30:25.103Z,8.30
2018-12-11T11:32:52.548Z,8.40
2018-12-11T11:35:20.003Z,8.40
2018-12-11T11:37:47.467Z,8.30
2018-12-11T11:40:14.965Z,8.00
2018-12-11T11:42:42.447Z,7.90
2018-12-11T11:45:10.840Z,7.90
2018-12-11T11:47:38.370Z,7.80
2018-12-11T11:50:08.501Z,7.70
2018-12-11T11:52:35.964Z,7.60
2018-12-11T11:55:03.591Z,7.80
2018-12-11T11:57:31.046Z,7.90
2018-12-11T11:59:58.484Z,8.40
2018-12-11T12:02:25.942Z,8.90
2018-12-11T12:04:53.388Z,9.10
2018-12-11T12:07:20.835Z,9.20
2018-12-11T12:09:48.287Z,9.30
2018-12-11T12:12:15.747Z,9.10
2018-12-11T12:14:48.933Z,8.60
2018-12-11T12:17:12.657Z,8.30
2018-12-11T12:19:40.215Z,8.10
2018-12-11T12:22:07.682Z,7.80
2018-12-11T12:24:35.212Z,7.70
2018-12-11T12:27:02.664Z,7.90
2018-12-11T12:29:30.107Z,7.90
2018-12-11T12:31:57.605Z,8.50
2018-12-11T12:34:25.065Z,9.20
2018-12-11T12:36:52.063Z,10.10
2018-12-11T12:39:19.119Z,10.40
2018-12-11T12:41:46.137Z,10.40
2018-12-11T12:44:13.145Z,10.40
2018-12-11T12:46:40.164Z,10.10
2018-12-11T12:49:07.174Z,10.00
2018-12-11T12:51:34.205Z,10.20
2018-12-11T12:54:01.228Z,10.60
2018-12-11T12:56:28.694Z,10.90
2018-12-11T12:58:56.174Z,11.40
2018-12-11T13:01:23.629Z,12.10
2018-12-11T13:03:51.098Z,12.30
2018-12-11T13:06:18.699Z,13.00
2018-12-11T13:08:46.163Z,12.70
2018-12-11T13:11:13.763Z,12.10
2018-12-11T13:13:41.211Z,12.40
2018-12-11T13:16:08.679Z,12.50
2018-12-11T13:18:36.139Z,12.50
2018-12-11T13:21:03.750Z,11.80
2018-12-11T13:23:31.199Z,11.60
2018-12-11T13:25:58.658Z,11.30
2018-12-11T13:28:26.107Z,10.80
2018-12-11T13:30:53.567Z,10.60
2018-12-11T13:33:21.078Z,10.10
2018-12-11T13:35:48.627Z,9.90
2018-12-11T13:38:16.095Z,9.80
2018-12-11T13:40:43.702Z,9.60
2018-12-11T13:43:11.183Z,9.10
2018-12-11T13:45:38.661Z,9.00
2018-12-11T13:48:06.215Z,9.00
2018-12-11T13:50:33.856Z,9.00
2018-12-11T13:53:01.324Z,8.90
2018-12-11T13:55:29.046Z,9.00
2018-12-11T13:57:56.487Z,9.00
2018-12-11T14:00:23.959Z,9.00
2018-12-11T14:02:51.437Z,8.80
2018-12-11T14:05:18.910Z,8.70
2018-12-11T14:07:46.378Z,8.90
2018-12-11T14:10:13.861Z,8.90
2018-12-11T14:12:41.304Z,8.80
2018-12-11T14:15:09.224Z,8.80
2018-12-11T14:17:36.716Z,8.70
2018-12-11T14:20:05.462Z,8.70
2018-12-11T14:22:32.911Z,8.60
2018-12-11T14:25:00.613Z,8.60
2018-12-11T14:27:28.121Z,8.70
2018-12-11T14:29:55.599Z,8.60
2018-12-11T14:32:23.058Z,8.60
2018-12-11T14:34:50.523Z,8.50
2018-12-11T14:37:17.983Z,8.50
2018-12-11T14:39:45.471Z,8.40
2018-12-11T14:42:12.934Z,8.50
2018-12-11T14:44:40.375Z,8.40
2018-12-11T14:47:07.858Z,8.40
2018-12-11T14:49:35.301Z,8.30
2018-12-11T14:52:02.759Z,8.30
2018-12-11T14:54:30.222Z,8.20
2018-12-11T14:56:57.726Z,8.10
2018-12-11T14:59:25.176Z,8.00
2018-12-11T15:01:52.615Z,7.90
2018-12-11T15:04:20.060Z,7.90
2018-12-11T15:06:47.668Z,7.80
2018-12-11T15:09:20.767Z,7.70
2018-12-11T15:11:48.246Z,7.60
2018-12-11T15:14:15.695Z,7.50
2018-12-11T15:16:43.139Z,7.40
2018-12-11T15:19:10.591Z,7.30
2018-12-11T15:21:38.028Z,7.20
2018-12-11T15:24:05.498Z,7.10
2018-12-11T15:26:32.993Z,7.10
2018-12-11T15:29:00.439Z,7.10
2018-12-11T15:31:27.888Z,7.10
2018-12-11T15:33:55.331Z,7.10
2018-12-11T15:36:22.780Z,7.00
2018-12-11T15:38:50.247Z,7.00
2018-12-11T15:41:17.701Z,7.00
2018-12-11T15:43:45.162Z,7.00
2018-12-11T15:46:12.603Z,7.00
2018-12-11T15:48:40.117Z,7.00
2018-12-11T15:51:07.567Z,7.00
2018-12-11T15:53:35.035Z,7.00
2018-12-11T15:56:02.563Z,7.00
2018-12-11T15:58:29.995Z,7.10
2018-12-11T16:00:57.463Z,7.00
2018-12-11T16:03:24.946Z,7.10
2018-12-11T16:05:52.406Z,7.00
2018-12-11T16:08:19.856Z,7.00
2018-12-11T16:10:47.316Z,7.00
2018-12-11T16:13:14.805Z,7.00
2018-12-11T16:15:42.255Z,7.10
2018-12-11T16:18:09.716Z,7.00
2018-12-11T16:20:37.158Z,7.00
2018-12-11T16:23:04.613Z,7.00
2018-12-11T16:25:32.067Z,7.00
2018-12-11T16:27:59.507Z,7.10
2018-12-11T16:30:27.011Z,7.00
2018-12-11T16:32:54.569Z,7.10
2018-12-11T16:35:22.139Z,7.10
2018-12-11T16:37:49.823Z,7.20
2018-12-11T16:40:17.335Z,7.30
2018-12-11T16:42:44.817Z,7.30
2018-12-11T16:45:12.357Z,7.20
2018-12-11T16:47:39.819Z,7.20
2018-12-11T16:50:07.393Z,7.20
2018-12-11T16:52:34.936Z,7.10
2018-12-11T16:55:02.399Z,7.10
2018-12-11T16:57:29.967Z,7.00
2018-12-11T16:59:57.527Z,6.90
2018-12-11T17:02:25.090Z,6.80
2018-12-11T17:04:52.632Z,6.70
2018-12-11T17:07:20.180Z,6.70
2018-12-11T17:09:47.671Z,6.60
2018-12-11T17:12:15.188Z,6.60
2018-12-11T17:14:42.790Z,6.50
2018-12-11T17:17:10.235Z,6.50
2018-12-11T17:19:37.823Z,6.40
2018-12-11T17:22:05.352Z,6.40
2018-12-11T17:24:32.879Z,6.40
2018-12-11T17:27:00.590Z,6.30
2018-12-11T17:29:28.144Z,6.30
2018-12-11T17:31:55.709Z,6.40
2018-12-11T17:34:23.248Z,6.30
2018-12-11T17:36:50.726Z,6.30
2018-12-11T17:39:18.277Z,6.30
2018-12-11T17:41:45.841Z,6.30
2018-12-11T17:44:13.398Z,6.30
2018-12-11T17:49:48.077Z,6.20
2018-12-11T17:52:15.539Z,6.20
2018-12-11T17:54:43.027Z,6.30
2018-12-11T17:57:10.471Z,6.20
2018-12-11T17:59:37.998Z,6.20
2018-12-11T18:02:07.154Z,6.20
2018-12-11T18:04:34.661Z,6.20
2018-12-11T18:07:02.138Z,6.30
2018-12-11T18:09:29.740Z,6.30
2018-12-11T18:11:57.198Z,6.30
2018-12-11T18:14:24.761Z,6.30
2018-12-11T18:16:52.226Z,6.30
2018-12-11T18:19:19.809Z,6.20
2018-12-11T18:21:47.351Z,6.20
2018-12-11T18:24:14.972Z,6.00
2018-12-11T18:26:42.523Z,6.00
2018-12-11T18:29:10.047Z,6.00
2018-12-11T18:31:37.589Z,6.20
2018-12-11T18:34:10.945Z,6.30
2018-12-11T18:36:34.603Z,6.40
2018-12-11T18:39:02.127Z,6.50
2018-12-11T18:41:29.655Z,6.50
2018-12-11T18:43:57.262Z,6.50
2018-12-11T18:46:24.772Z,6.50
2018-12-11T18:48:52.229Z,6.50
2018-12-11T18:51:19.796Z,6.50
2018-12-11T18:53:47.248Z,6.60
2018-12-11T18:56:14.865Z,6.40
2018-12-11T18:58:42.390Z,6.30
2018-12-11T19:01:09.938Z,6.20
2018-12-11T19:03:37.491Z,6.20
2018-12-11T19:06:05.057Z,6.10
2018-12-11T19:08:32.557Z,6.10
2018-12-11T19:11:00.081Z,6.10
2018-12-11T19:13:27.535Z,6.20
2018-12-11T19:15:55.067Z,6.20
2018-12-11T19:18:22.610Z,6.10
2018-12-11T19:20:50.187Z,5.90
2018-12-11T19:23:20.737Z,5.80
2018-12-11T19:25:48.188Z,5.80
2018-12-11T19:28:15.762Z,5.90
2018-12-11T19:30:43.343Z,5.90
2018-12-11T19:33:10.972Z,5.90
2018-12-11T19:35:38.434Z,5.90
2018-12-11T19:38:05.904Z,5.90
2018-12-11T19:40:33.392Z,5.90
2018-12-11T19:43:06.787Z,6.00
2018-12-11T19:45:30.311Z,6.00
2018-12-11T19:47:57.871Z,6.00
2018-12-11T19:50:25.340Z,6.00
2018-12-11T19:52:52.885Z,6.00
2018-12-11T19:55:20.371Z,5.90
2018-12-11T19:57:47.909Z,5.80
2018-12-11T20:00:15.466Z,5.80
2018-12-11T20:02:42.938Z,5.80
2018-12-11T20:05:10.461Z,5.70
2018-12-11T20:07:37.964Z,5.70
2018-12-11T20:10:15.842Z,5.60
2018-12-11T20:12:43.910Z,5.50
2018-12-11T20:15:11.386Z,5.40
2018-12-11T20:17:38.937Z,5.40
2018-12-11T20:20:07.840Z,5.30
2018-12-11T20:22:35.396Z,5.20
2018-12-11T20:25:02.964Z,5.20
2018-12-11T20:27:30.494Z,5.10
2018-12-11T20:29:57.980Z,5.00
2018-12-11T20:32:25.457Z,4.90
2018-12-11T20:34:52.909Z,4.90
2018-12-11T20:37:20.443Z,4.80
2018-12-11T20:39:48.079Z,4.70
2018-12-11T20:42:15.561Z,4.70
2018-12-11T20:44:43.101Z,4.60
2018-12-11T20:47:10.569Z,4.60
2018-12-11T20:49:38.046Z,4.50
2018-12-11T20:52:05.513Z,4.40
2018-12-11T20:54:33.741Z,4.40
2018-12-11T20:57:01.670Z,4.30
2018-12-11T20:59:29.131Z,4.30
2018-12-11T21:01:56.607Z,4.20
2018-12-11T21:04:24.084Z,4.20
2018-12-11T21:06:51.586Z,4.20
2018-12-11T21:09:19.060Z,4.10
2018-12-11T21:11:46.518Z,4.10
2018-12-11T21:14:14.013Z,4.10
2018-12-11T21:16:41.513Z,4.10
2018-12-11T21:19:09.109Z,4.00
2018-12-11T21:21:36.831Z,4.00
2018-12-11T21:24:04.546Z,3.90
2018-12-11T21:26:32.036Z,3.90
2018-12-11T21:28:59.500Z,3.90
2018-12-11T21:31:26.973Z,3.80
2018-12-11T21:33:54.418Z,3.80
2018-12-11T21:36:21.883Z,3.70
2018-12-11T21:38:49.383Z,3.70
2018-12-11T21:41:16.848Z,3.70
2018-12-11T21:43:44.318Z,3.70
2018-12-11T21:46:11.778Z,3.70
2018-12-11T21:48:39.250Z,3.80
2018-12-11T21:51:06.747Z,3.80
2018-12-11T21:53:34.555Z,3.80
2018-12-11T21:56:02.024Z,3.90
2018-12-11T21:58:29.477Z,3.90
2018-12-11T22:00:57.071Z,3.90
2018-12-11T22:03:24.779Z,3.90
2018-12-11T22:05:52.492Z,3.90
2018-12-11T22:08:19.931Z,4.00
2018-12-11T22:10:47.398Z,4.00
2018-12-11T22:13:14.926Z,4.10
2018-12-11T22:15:42.409Z,4.10
2018-12-11T22:18:09.911Z,4.10
2018-12-11T22:20:37.390Z,4.10
2018-12-11T22:23:04.870Z,4.10
2018-12-11T22:25:32.338Z,4.10
2018-12-11T22:27:59.802Z,4.00
2018-12-11T22:30:27.262Z,4.00
2018-12-11T22:32:54.793Z,3.90
2018-12-11T22:35:22.240Z,3.80
2018-12-11T22:37:49.733Z,3.80
2018-12-11T22:40:17.186Z,3.60
2018-12-11T22:42:44.664Z,3.60
2018-12-11T22:45:12.144Z,3.60
2018-12-11T22:47:39.606Z,3.50
2018-12-11T22:50:07.219Z,3.40
2018-12-11T22:52:34.682Z,3.40
2018-12-11T22:55:02.131Z,3.30
2018-12-11T22:57:29.579Z,3.30
2018-12-11T22:59:57.106Z,3.30
2018-12-11T23:02:24.645Z,3.20
2018-12-11T23:04:52.123Z,3.10
2018-12-11T23:07:19.586Z,3.10
2018-12-11T23:09:47.044Z,3.10
2018-12-11T23:12:14.677Z,3.10
2018-12-11T23:14:42.249Z,3.10
2018-12-11T23:17:09.801Z,3.10
2018-12-11T23:19:37.304Z,3.10
2018-12-11T23:22:04.887Z,3.20
2018-12-11T23:24:32.384Z,3.20
2018-12-11T23:26:59.845Z,3.20
2018-12-11T23:29:27.295Z,3.20
2018-12-11T23:31:54.748Z,3.30
2018-12-11T23:34:22.223Z,3.40
2018-12-11T23:36:49.683Z,3.40
2018-12-11T23:39:17.186Z,3.50
2018-12-11T23:41:44.647Z,3.60
2018-12-11T23:44:12.091Z,3.60
2018-12-11T23:46:39.572Z,3.70
2018-12-11T23:49:07.033Z,3.70
2018-12-11T23:51:34.494Z,3.70
2018-12-11T23:54:02.311Z,3.70
2018-12-11T23:56:29.758Z,3.80
2018-12-11T23:58:57.200Z,3.80
